createdAt,value
2023-03-05T00:00:37.100Z,89
2023-03-05T00:05:23.829Z,89
2023-03-05T00:15:18.846Z,89
2023-03-05T00:20:25.917Z,89
2023-03-05T00:25:31.046Z,89
2023-03-05T00:30:20.243Z,89
2023-03-05T00:35:26.275Z,89
2023-03-05T00:40:33.381Z,90
2023-03-05T00:45:21.165Z,90
2023-03-05T00:50:26.979Z,90
2023-03-05T00:55:32.820Z,90
2023-03-05T01:00:25.902Z,90
2023-03-05T01:05:28.387Z,91
2023-03-05T01:10:35.956Z,91
2023-03-05T01:15:21.994Z,91
2023-03-05T01:20:30.746Z,91
2023-03-05T01:25:35.157Z,91
2023-03-05T01:30:23.607Z,91
2023-03-05T01:35:29.469Z,91
2023-03-05T01:40:18.823Z,91
2023-03-05T01:45:24.815Z,91
2023-03-05T01:50:31.681Z,91
2023-03-05T01:55:20.048Z,91
2023-03-05T02:00:29.577Z,91
2023-03-05T02:05:31.690Z,91
2023-03-05T02:10:20.338Z,91
2023-03-05T02:15:27.874Z,91
2023-03-05T02:20:33.819Z,91
2023-03-05T02:25:21.678Z,91
2023-03-05T02:30:28.041Z,91
2023-03-05T02:35:34.622Z,92
2023-03-05T02:40:23.076Z,92
2023-03-05T02:45:29.242Z,92
2023-03-05T02:50:35.152Z,92
2023-03-05T02:55:23.875Z,92
2023-03-05T03:00:31.817Z,92
2023-03-05T03:05:19.007Z,92
2023-03-05T03:10:25.300Z,91
2023-03-05T03:15:31.496Z,91
2023-03-05T03:20:22.989Z,91
2023-03-05T03:25:27.256Z,91
2023-03-05T03:30:33.060Z,91
2023-03-05T03:35:21.353Z,90
2023-03-05T03:40:28.349Z,90
2023-03-05T03:45:33.798Z,90
2023-03-05T03:50:21.512Z,89
2023-03-05T03:55:28.063Z,89
2023-03-05T04:00:36.443Z,89
2023-03-05T04:05:22.196Z,89
2023-03-05T04:10:32.439Z,89
2023-03-05T04:15:34.633Z,88
2023-03-05T04:20:23.334Z,88
2023-03-05T04:25:29.573Z,88
2023-03-05T04:30:19.017Z,87
2023-03-05T04:35:25.482Z,87
2023-03-05T04:40:31.677Z,87
2023-03-05T04:45:19.563Z,86
2023-03-05T04:50:25.343Z,86
2023-03-05T04:55:32.457Z,86
2023-03-05T05:00:24.890Z,86
2023-03-05T05:05:26.807Z,86
2023-03-05T05:10:35.203Z,85
2023-03-05T05:15:21.938Z,85
2023-03-05T05:20:30.171Z,84
2023-03-05T05:25:33.967Z,84
2023-03-05T05:30:22.948Z,84
2023-03-05T05:35:29.513Z,85
2023-03-05T05:40:36.782Z,84
2023-03-05T05:45:23.988Z,84
2023-03-05T05:50:30.049Z,84
2023-03-05T05:55:18.579Z,84
2023-03-05T06:00:28.927Z,83
2023-03-05T06:05:32.029Z,83
2023-03-05T06:10:20.591Z,83
2023-03-05T06:15:25.298Z,83
2023-03-05T06:20:32.718Z,83
2023-03-05T06:25:20.321Z,84
2023-03-05T06:30:27.100Z,84
2023-03-05T06:35:18.662Z,83
2023-03-05T06:40:22.097Z,83
2023-03-05T06:45:27.784Z,83
2023-03-05T06:50:33.934Z,83
2023-03-05T06:55:22.545Z,82
2023-03-05T07:00:31.173Z,82
2023-03-05T07:05:35.140Z,82
2023-03-05T07:10:27.160Z,82
2023-03-05T07:15:30.788Z,82
2023-03-05T07:20:21.137Z,82
2023-03-05T07:25:25.029Z,81
2023-03-05T07:30:31.078Z,81
2023-03-05T07:35:20.426Z,81
2023-03-05T07:40:26.800Z,81
2023-03-05T07:45:32.551Z,81
2023-03-05T07:50:20.477Z,81
2023-03-05T07:55:26.852Z,81
2023-03-05T08:00:40.165Z,81
2023-03-05T08:05:22.030Z,80
2023-03-05T08:10:28.734Z,80
2023-03-05T08:15:34.503Z,80
2023-03-05T08:20:24.330Z,80
2023-03-05T08:25:30.286Z,81
2023-03-05T08:30:36.371Z,80
2023-03-05T08:35:24.162Z,80
2023-03-05T08:40:30.658Z,80
2023-03-05T08:45:19.395Z,80
2023-03-05T08:50:25.889Z,79
2023-03-05T08:55:31.543Z,79
2023-03-05T09:00:25.133Z,78
2023-03-05T09:05:25.544Z,77
2023-03-05T09:10:32.825Z,77
2023-03-05T09:15:20.324Z,76
2023-03-05T09:20:27.457Z,76
2023-03-05T09:25:32.923Z,76
2023-03-05T09:30:22.227Z,76
2023-03-05T09:35:28.561Z,75
2023-03-05T09:40:35.939Z,75
2023-03-05T09:45:23.095Z,76
2023-03-05T09:50:28.975Z,76
2023-03-05T09:55:34.890Z,75
2023-03-05T10:00:29.486Z,76
2023-03-05T10:05:30.061Z,76
2023-03-05T10:10:19.405Z,76
2023-03-05T10:15:25.311Z,76
2023-03-05T10:20:32.424Z,75
2023-03-05T10:25:20.277Z,74
2023-03-05T10:30:26.499Z,75
2023-03-05T10:35:32.998Z,74
2023-03-05T10:40:21.507Z,74
2023-03-05T10:45:28.282Z,74
2023-03-05T10:50:33.610Z,74
2023-03-05T10:55:22.187Z,74
2023-03-05T11:00:35.114Z,73
2023-03-05T11:05:34.356Z,73
2023-03-05T11:10:23.578Z,72
2023-03-05T11:15:29.359Z,72
2023-03-05T11:20:36.488Z,71
2023-03-05T11:25:24.337Z,71
2023-03-05T11:30:30.509Z,71
2023-03-05T11:35:18.952Z,70
2023-03-05T11:40:27.320Z,70
2023-03-05T11:45:30.905Z,69
2023-03-05T11:50:19.401Z,69
2023-03-05T11:55:26.450Z,68
2023-03-05T12:00:33.951Z,68
2023-03-05T12:05:21.147Z,68
2023-03-05T12:10:27.604Z,68
2023-03-05T12:15:33.742Z,68
2023-03-05T12:20:23.285Z,68
2023-03-05T12:25:28.037Z,68
2023-03-05T12:30:34.900Z,68
2023-03-05T12:35:23.090Z,67
2023-03-05T12:40:30.577Z,67
2023-03-05T12:45:35.325Z,67
2023-03-05T12:50:23.704Z,66
2023-03-05T12:55:30.169Z,66
2023-03-05T13:00:22.797Z,66
2023-03-05T13:05:25.546Z,66
2023-03-05T13:10:30.602Z,65
2023-03-05T13:15:19.632Z,65
2023-03-05T13:20:25.619Z,66
2023-03-05T13:25:32.655Z,66
2023-03-05T13:30:20.628Z,67
2023-03-05T13:35:26.531Z,67
2023-03-05T13:40:20.903Z,67
2023-03-05T13:45:21.728Z,67
2023-03-05T13:50:28.053Z,67
2023-03-05T13:55:33.510Z,67
2023-03-05T14:00:27.002Z,67
2023-03-05T14:05:29.558Z,67
2023-03-05T14:10:35.559Z,67
2023-03-05T14:15:26.263Z,68
2023-03-05T14:20:30.583Z,68
2023-03-05T14:25:19.134Z,68
2023-03-05T14:30:25.322Z,69
2023-03-05T14:35:31.545Z,70
2023-03-05T14:40:22.032Z,70
2023-03-05T14:45:26.295Z,70
2023-03-05T14:50:31.602Z,70
2023-03-05T14:55:20.508Z,70
2023-03-05T15:00:36.826Z,70
2023-03-05T15:05:33.489Z,70
2023-03-05T15:10:22.252Z,70
2023-03-05T15:15:27.830Z,70
2023-03-05T15:20:37.310Z,70
2023-03-05T15:25:22.489Z,71
2023-03-05T15:30:29.149Z,70
2023-03-05T15:35:34.465Z,70
2023-03-05T15:40:23.839Z,70
2023-03-05T15:45:30.106Z,70
2023-03-05T15:50:18.368Z,70
2023-03-05T15:55:24.930Z,70
2023-03-05T16:00:35.447Z,70
2023-03-05T16:05:20.315Z,70
2023-03-05T16:10:27.312Z,70
2023-03-05T16:15:33.297Z,70
2023-03-05T16:20:21.678Z,70
2023-03-05T16:25:27.468Z,70
2023-03-05T16:30:34.117Z,70
2023-03-05T16:35:22.601Z,70
2023-03-05T16:40:38.873Z,70
2023-03-05T16:45:35.432Z,70
2023-03-05T16:50:23.160Z,70
2023-03-05T16:55:29.510Z,71
2023-03-05T17:00:42.722Z,71
2023-03-05T17:05:23.681Z,71
2023-03-05T17:10:30.062Z,72
2023-03-05T17:15:18.758Z,72
2023-03-05T17:20:25.987Z,72
2023-03-05T17:25:30.757Z,72
2023-03-05T17:30:20.110Z,72
2023-03-05T17:35:26.127Z,72
2023-03-05T17:40:33.515Z,72
2023-03-05T17:45:20.958Z,73
2023-03-05T17:50:27.096Z,73
2023-03-05T17:55:32.657Z,73
2023-03-05T18:00:26.089Z,73
2023-03-05T18:05:28.461Z,73
2023-03-05T18:10:37.785Z,73
2023-03-05T18:15:22.841Z,73
2023-03-05T18:20:30.007Z,74
2023-03-05T18:25:35.720Z,74
2023-03-05T18:30:24.355Z,74
2023-03-05T18:35:30.286Z,75
2023-03-05T18:40:21.939Z,75
2023-03-05T18:45:25.344Z,75
2023-03-05T18:50:31.819Z,75
2023-03-05T18:55:20.697Z,76
2023-03-05T19:00:31.386Z,76
2023-03-05T19:05:32.311Z,77
2023-03-05T19:10:23.042Z,77
2023-03-05T19:15:27.344Z,77
2023-03-05T19:20:34.924Z,78
2023-03-05T19:25:22.206Z,78
2023-03-05T19:30:28.369Z,79
2023-03-05T19:35:34.688Z,79
2023-03-05T19:40:23.271Z,79
2023-03-05T19:45:29.123Z,79
2023-03-05T19:50:35.100Z,79
2023-03-05T19:55:23.641Z,80
2023-03-05T20:00:32.774Z,80
2023-03-05T20:05:19.458Z,81
2023-03-05T20:10:28.251Z,81
2023-03-05T20:15:31.150Z,82
2023-03-05T20:20:21.006Z,82
2023-03-05T20:25:26.720Z,82
2023-03-05T20:30:32.409Z,83
2023-03-05T20:35:21.489Z,83
2023-03-05T20:40:27.813Z,83
2023-03-05T20:45:33.936Z,83
2023-03-05T20:50:21.710Z,83
2023-03-05T20:55:28.105Z,84
2023-03-05T21:00:35.513Z,84
2023-03-05T21:05:22.273Z,84
2023-03-05T21:10:29.741Z,84
2023-03-05T21:15:34.417Z,84
2023-03-05T21:20:24.007Z,84
2023-03-05T21:25:29.737Z,84
2023-03-05T21:30:18.753Z,84
2023-03-05T21:35:25.590Z,84
2023-03-05T21:40:31.029Z,85
2023-03-05T21:45:19.629Z,85
2023-03-05T21:50:25.733Z,85
2023-03-05T21:55:33.004Z,84
2023-03-05T22:00:27.060Z,84
2023-03-05T22:05:26.792Z,84
2023-03-05T22:10:33.083Z,84
2023-03-05T22:15:21.731Z,84
2023-03-05T22:20:29.237Z,84
2023-03-05T22:25:33.894Z,84
2023-03-05T22:30:22.989Z,84
2023-03-05T22:35:29.271Z,85
2023-03-05T22:40:36.141Z,85
2023-03-05T22:45:24.039Z,84
2023-03-05T22:50:30.113Z,84
2023-03-05T22:55:18.725Z,84
2023-03-05T23:00:28.496Z,84
2023-03-05T23:05:31.471Z,84
2023-03-05T23:10:21.060Z,84
2023-03-05T23:15:25.902Z,85
2023-03-05T23:20:32.558Z,85
2023-03-05T23:25:20.872Z,85
2023-03-05T23:30:27.774Z,85
2023-03-05T23:35:32.813Z,85
2023-03-05T23:40:22.451Z,85
2023-03-05T23:45:28.022Z,85
2023-03-05T23:50:34.812Z,85
2023-03-05T23:55:22.842Z,85
